sensor_id;sensor_type;location;lat;lon;timestamp;P1;durP1;ratioP1;P2;durP2;ratioP2
46415;SDS011;32620;51.704;7.822;2024-03-22T00:01:50;64.40;;;31.70;;
46415;SDS011;32620;51.704;7.822;2024-03-22T00:04:16;60.63;;;32.13;;
46415;SDS011;32620;51.704;7.822;2024-03-22T00:06:42;60.65;;;32.40;;
46415;SDS011;32620;51.704;7.822;2024-03-22T00:09:09;66.35;;;33.25;;
46415;SDS011;32620;51.704;7.822;2024-03-22T00:11:35;65.93;;;33.75;;
46415;SDS011;32620;51.704;7.822;2024-03-22T00:14:01;66.22;;;33.03;;
46415;SDS011;32620;51.704;7.822;2024-03-22T00:16:27;70.05;;;33.83;;
46415;SDS011;32620;51.704;7.822;2024-03-22T00:18:53;70.13;;;34.88;;
46415;SDS011;32620;51.704;7.822;2024-03-22T00:21:18;65.57;;;34.90;;
46415;SDS011;32620;51.704;7.822;2024-03-22T00:23:45;67.68;;;34.75;;
46415;SDS011;32620;51.704;7.822;2024-03-22T00:26:10;76.60;;;36.53;;
46415;SDS011;32620;51.704;7.822;2024-03-22T00:28:36;78.43;;;38.55;;
46415;SDS011;32620;51.704;7.822;2024-03-22T00:31:01;78.53;;;37.22;;
46415;SDS011;32620;51.704;7.822;2024-03-22T00:33:27;83.25;;;38.85;;
46415;SDS011;32620;51.704;7.822;2024-03-22T00:35:53;77.05;;;37.20;;
46415;SDS011;32620;51.704;7.822;2024-03-22T00:38:18;80.60;;;39.13;;
46415;SDS011;32620;51.704;7.822;2024-03-22T00:40:44;76.25;;;37.40;;
46415;SDS011;32620;51.704;7.822;2024-03-22T00:43:09;84.43;;;39.92;;
46415;SDS011;32620;51.704;7.822;2024-03-22T00:45:35;85.60;;;37.65;;
46415;SDS011;32620;51.704;7.822;2024-03-22T00:48:00;91.70;;;38.35;;
46415;SDS011;32620;51.704;7.822;2024-03-22T00:50:26;83.82;;;38.00;;
46415;SDS011;32620;51.704;7.822;2024-03-22T00:52:54;76.68;;;35.38;;
46415;SDS011;32620;51.704;7.822;2024-03-22T00:55:21;68.60;;;32.25;;
46415;SDS011;32620;51.704;7.822;2024-03-22T00:57:47;69.68;;;33.38;;
46415;SDS011;32620;51.704;7.822;2024-03-22T01:00:13;78.47;;;34.80;;
46415;SDS011;32620;51.704;7.822;2024-03-22T01:02:40;78.55;;;35.20;;
46415;SDS011;32620;51.704;7.822;2024-03-22T01:05:06;71.57;;;34.40;;
46415;SDS011;32620;51.704;7.822;2024-03-22T01:07:32;72.68;;;33.53;;
46415;SDS011;32620;51.704;7.822;2024-03-22T01:09:58;68.20;;;33.17;;
46415;SDS011;32620;51.704;7.822;2024-03-22T01:12:23;70.32;;;34.47;;
46415;SDS011;32620;51.704;7.822;2024-03-22T01:14:49;68.30;;;33.10;;
46415;SDS011;32620;51.704;7.822;2024-03-22T01:17:14;74.32;;;35.08;;
46415;SDS011;32620;51.704;7.822;2024-03-22T01:19:40;71.93;;;32.22;;
46415;SDS011;32620;51.704;7.822;2024-03-22T01:22:06;75.45;;;32.42;;
46415;SDS011;32620;51.704;7.822;2024-03-22T01:24:31;71.57;;;32.83;;
46415;SDS011;32620;51.704;7.822;2024-03-22T01:26:57;73.32;;;32.67;;
46415;SDS011;32620;51.704;7.822;2024-03-22T01:29:22;69.50;;;33.15;;
46415;SDS011;32620;51.704;7.822;2024-03-22T01:31:48;75.30;;;33.05;;
46415;SDS011;32620;51.704;7.822;2024-03-22T01:34:13;76.15;;;34.35;;
46415;SDS011;32620;51.704;7.822;2024-03-22T01:36:39;69.22;;;32.80;;
46415;SDS011;32620;51.704;7.822;2024-03-22T01:39:05;74.40;;;31.63;;
46415;SDS011;32620;51.704;7.822;2024-03-22T01:41:31;70.53;;;33.00;;
46415;SDS011;32620;51.704;7.822;2024-03-22T01:43:57;70.70;;;31.92;;
46415;SDS011;32620;51.704;7.822;2024-03-22T01:46:23;69.93;;;31.65;;
46415;SDS011;32620;51.704;7.822;2024-03-22T01:48:49;67.78;;;31.30;;
46415;SDS011;32620;51.704;7.822;2024-03-22T01:51:15;63.28;;;30.23;;
46415;SDS011;32620;51.704;7.822;2024-03-22T01:53:41;70.57;;;31.48;;
46415;SDS011;32620;51.704;7.822;2024-03-22T01:56:07;63.58;;;30.20;;
46415;SDS011;32620;51.704;7.822;2024-03-22T01:58:33;66.28;;;30.98;;
46415;SDS011;32620;51.704;7.822;2024-03-22T02:00:58;71.38;;;31.08;;
46415;SDS011;32620;51.704;7.822;2024-03-22T02:03:24;68.38;;;30.92;;
46415;SDS011;32620;51.704;7.822;2024-03-22T02:05:49;69.82;;;31.67;;
46415;SDS011;32620;51.704;7.822;2024-03-22T02:08:15;70.47;;;30.92;;
46415;SDS011;32620;51.704;7.822;2024-03-22T02:10:41;65.85;;;31.23;;
46415;SDS011;32620;51.704;7.822;2024-03-22T02:13:07;72.88;;;31.90;;
46415;SDS011;32620;51.704;7.822;2024-03-22T02:15:33;67.40;;;32.42;;
46415;SDS011;32620;51.704;7.822;2024-03-22T02:17:58;68.25;;;31.60;;
46415;SDS011;32620;51.704;7.822;2024-03-22T02:20:24;69.10;;;31.55;;
46415;SDS011;32620;51.704;7.822;2024-03-22T02:22:50;67.47;;;30.92;;
46415;SDS011;32620;51.704;7.822;2024-03-22T02:25:16;64.55;;;30.00;;
46415;SDS011;32620;51.704;7.822;2024-03-22T02:27:42;68.97;;;30.50;;
46415;SDS011;32620;51.704;7.822;2024-03-22T02:30:08;69.82;;;32.40;;
46415;SDS011;32620;51.704;7.822;2024-03-22T02:32:33;66.50;;;30.90;;
46415;SDS011;32620;51.704;7.822;2024-03-22T02:34:59;70.20;;;31.33;;
46415;SDS011;32620;51.704;7.822;2024-03-22T02:37:25;67.47;;;30.15;;
46415;SDS011;32620;51.704;7.822;2024-03-22T02:39:50;63.72;;;29.98;;
46415;SDS011;32620;51.704;7.822;2024-03-22T02:42:16;64.30;;;29.80;;
46415;SDS011;32620;51.704;7.822;2024-03-22T02:44:41;64.50;;;31.48;;
46415;SDS011;32620;51.704;7.822;2024-03-22T02:47:09;63.58;;;29.75;;
46415;SDS011;32620;51.704;7.822;2024-03-22T02:49:35;64.43;;;29.23;;
46415;SDS011;32620;51.704;7.822;2024-03-22T02:52:01;63.88;;;29.88;;
46415;SDS011;32620;51.704;7.822;2024-03-22T02:54:26;63.88;;;28.98;;
46415;SDS011;32620;51.704;7.822;2024-03-22T02:56:52;64.15;;;31.73;;
46415;SDS011;32620;51.704;7.822;2024-03-22T02:59:17;62.83;;;29.60;;
46415;SDS011;32620;51.704;7.822;2024-03-22T03:01:43;64.18;;;29.55;;
46415;SDS011;32620;51.704;7.822;2024-03-22T03:04:08;64.07;;;30.92;;
46415;SDS011;32620;51.704;7.822;2024-03-22T03:06:34;68.18;;;31.38;;
46415;SDS011;32620;51.704;7.822;2024-03-22T03:08:59;67.05;;;30.60;;
46415;SDS011;32620;51.704;7.822;2024-03-22T03:11:25;67.00;;;31.42;;
46415;SDS011;32620;51.704;7.822;2024-03-22T03:13:50;72.00;;;33.85;;
46415;SDS011;32620;51.704;7.822;2024-03-22T03:16:16;71.00;;;31.63;;
46415;SDS011;32620;51.704;7.822;2024-03-22T03:18:42;66.28;;;32.05;;
46415;SDS011;32620;51.704;7.822;2024-03-22T03:21:07;66.82;;;30.88;;
46415;SDS011;32620;51.704;7.822;2024-03-22T03:23:33;64.70;;;29.65;;
46415;SDS011;32620;51.704;7.822;2024-03-22T03:25:59;63.58;;;28.77;;
46415;SDS011;32620;51.704;7.822;2024-03-22T03:28:24;67.38;;;30.25;;
46415;SDS011;32620;51.704;7.822;2024-03-22T03:30:51;63.15;;;29.88;;
46415;SDS011;32620;51.704;7.822;2024-03-22T03:33:16;63.67;;;29.10;;
46415;SDS011;32620;51.704;7.822;2024-03-22T03:35:45;61.22;;;27.98;;
46415;SDS011;32620;51.704;7.822;2024-03-22T03:38:11;64.63;;;29.60;;
46415;SDS011;32620;51.704;7.822;2024-03-22T03:40:37;60.15;;;28.35;;
46415;SDS011;32620;51.704;7.822;2024-03-22T03:43:02;59.50;;;27.95;;
46415;SDS011;32620;51.704;7.822;2024-03-22T03:45:28;63.55;;;30.23;;
46415;SDS011;32620;51.704;7.822;2024-03-22T03:47:53;61.42;;;29.02;;
46415;SDS011;32620;51.704;7.822;2024-03-22T03:50:19;55.63;;;27.42;;
46415;SDS011;32620;51.704;7.822;2024-03-22T03:52:44;57.15;;;27.02;;
46415;SDS011;32620;51.704;7.822;2024-03-22T03:55:10;60.33;;;28.20;;
46415;SDS011;32620;51.704;7.822;2024-03-22T03:57:35;60.33;;;28.35;;
46415;SDS011;32620;51.704;7.822;2024-03-22T04:00:01;55.92;;;28.33;;
46415;SDS011;32620;51.704;7.822;2024-03-22T04:02:27;66.38;;;28.65;;
46415;SDS011;32620;51.704;7.822;2024-03-22T04:04:53;55.22;;;26.25;;
46415;SDS011;32620;51.704;7.822;2024-03-22T04:07:19;55.50;;;26.60;;
46415;SDS011;32620;51.704;7.822;2024-03-22T04:09:45;60.33;;;29.20;;
46415;SDS011;32620;51.704;7.822;2024-03-22T04:12:11;62.25;;;27.48;;
46415;SDS011;32620;51.704;7.822;2024-03-22T04:14:37;57.58;;;26.45;;
46415;SDS011;32620;51.704;7.822;2024-03-22T04:17:02;60.72;;;26.25;;
46415;SDS011;32620;51.704;7.822;2024-03-22T04:19:28;61.63;;;28.25;;
46415;SDS011;32620;51.704;7.822;2024-03-22T04:21:54;58.88;;;27.23;;
46415;SDS011;32620;51.704;7.822;2024-03-22T04:24:19;62.53;;;28.55;;
46415;SDS011;32620;51.704;7.822;2024-03-22T04:26:45;56.10;;;27.10;;
46415;SDS011;32620;51.704;7.822;2024-03-22T04:29:10;61.90;;;28.15;;
46415;SDS011;32620;51.704;7.822;2024-03-22T04:31:36;57.95;;;26.17;;
46415;SDS011;32620;51.704;7.822;2024-03-22T04:34:02;59.75;;;27.15;;
46415;SDS011;32620;51.704;7.822;2024-03-22T04:36:27;58.28;;;27.58;;
46415;SDS011;32620;51.704;7.822;2024-03-22T04:38:53;56.63;;;26.38;;
46415;SDS011;32620;51.704;7.822;2024-03-22T04:41:19;59.70;;;28.10;;
46415;SDS011;32620;51.704;7.822;2024-03-22T04:43:44;60.10;;;27.98;;
46415;SDS011;32620;51.704;7.822;2024-03-22T04:46:10;59.65;;;28.08;;
46415;SDS011;32620;51.704;7.822;2024-03-22T04:48:35;59.88;;;27.75;;
46415;SDS011;32620;51.704;7.822;2024-03-22T04:51:01;64.18;;;29.90;;
46415;SDS011;32620;51.704;7.822;2024-03-22T04:53:26;63.70;;;28.52;;
46415;SDS011;32620;51.704;7.822;2024-03-22T04:55:52;58.45;;;28.52;;
46415;SDS011;32620;51.704;7.822;2024-03-22T04:58:18;56.00;;;28.58;;
46415;SDS011;32620;51.704;7.822;2024-03-22T05:00:46;54.05;;;28.10;;
46415;SDS011;32620;51.704;7.822;2024-03-22T05:03:12;59.25;;;28.45;;
46415;SDS011;32620;51.704;7.822;2024-03-22T05:05:38;60.42;;;30.08;;
46415;SDS011;32620;51.704;7.822;2024-03-22T05:08:04;60.15;;;29.77;;
46415;SDS011;32620;51.704;7.822;2024-03-22T05:10:31;56.33;;;28.70;;
46415;SDS011;32620;51.704;7.822;2024-03-22T05:12:56;57.08;;;28.92;;
46415;SDS011;32620;51.704;7.822;2024-03-22T05:15:22;57.72;;;27.58;;
46415;SDS011;32620;51.704;7.822;2024-03-22T05:17:50;59.00;;;27.73;;
46415;SDS011;32620;51.704;7.822;2024-03-22T05:20:16;61.47;;;28.00;;
46415;SDS011;32620;51.704;7.822;2024-03-22T05:22:42;55.47;;;28.38;;
46415;SDS011;32620;51.704;7.822;2024-03-22T05:25:08;58.60;;;28.30;;
46415;SDS011;32620;51.704;7.822;2024-03-22T05:27:34;55.22;;;28.08;;
46415;SDS011;32620;51.704;7.822;2024-03-22T05:30:00;57.28;;;27.80;;
46415;SDS011;32620;51.704;7.822;2024-03-22T05:32:26;53.22;;;27.33;;
46415;SDS011;32620;51.704;7.822;2024-03-22T05:34:52;61.58;;;27.35;;
46415;SDS011;32620;51.704;7.822;2024-03-22T05:37:18;56.40;;;27.83;;
46415;SDS011;32620;51.704;7.822;2024-03-22T05:39:43;51.80;;;26.05;;
46415;SDS011;32620;51.704;7.822;2024-03-22T05:42:09;57.17;;;25.80;;
46415;SDS011;32620;51.704;7.822;2024-03-22T05:44:35;50.80;;;26.35;;
46415;SDS011;32620;51.704;7.822;2024-03-22T05:47:00;51.13;;;26.67;;
46415;SDS011;32620;51.704;7.822;2024-03-22T05:49:26;46.90;;;24.50;;
46415;SDS011;32620;51.704;7.822;2024-03-22T05:51:52;52.28;;;25.50;;
46415;SDS011;32620;51.704;7.822;2024-03-22T05:54:17;50.83;;;25.92;;
46415;SDS011;32620;51.704;7.822;2024-03-22T05:56:43;52.83;;;25.65;;
46415;SDS011;32620;51.704;7.822;2024-03-22T05:59:08;51.35;;;25.77;;
46415;SDS011;32620;51.704;7.822;2024-03-22T06:01:36;49.38;;;25.15;;
46415;SDS011;32620;51.704;7.822;2024-03-22T06:04:03;52.00;;;26.20;;
46415;SDS011;32620;51.704;7.822;2024-03-22T06:06:29;48.53;;;25.45;;
46415;SDS011;32620;51.704;7.822;2024-03-22T06:08:55;46.08;;;25.63;;
46415;SDS011;32620;51.704;7.822;2024-03-22T06:11:22;47.63;;;25.48;;
46415;SDS011;32620;51.704;7.822;2024-03-22T06:13:48;46.83;;;25.73;;
46415;SDS011;32620;51.704;7.822;2024-03-22T06:16:13;56.92;;;26.58;;
46415;SDS011;32620;51.704;7.822;2024-03-22T06:18:39;50.55;;;25.60;;
46415;SDS011;32620;51.704;7.822;2024-03-22T06:21:05;48.42;;;25.38;;
46415;SDS011;32620;51.704;7.822;2024-03-22T06:23:31;44.63;;;24.17;;
46415;SDS011;32620;51.704;7.822;2024-03-22T06:25:57;45.00;;;23.63;;
46415;SDS011;32620;51.704;7.822;2024-03-22T06:28:25;44.63;;;24.40;;
46415;SDS011;32620;51.704;7.822;2024-03-22T06:30:52;50.50;;;24.02;;
46415;SDS011;32620;51.704;7.822;2024-03-22T06:33:19;45.75;;;24.02;;
46415;SDS011;32620;51.704;7.822;2024-03-22T06:35:45;43.15;;;22.90;;
46415;SDS011;32620;51.704;7.822;2024-03-22T06:38:11;44.47;;;23.73;;
46415;SDS011;32620;51.704;7.822;2024-03-22T06:40:37;51.45;;;27.50;;
46415;SDS011;32620;51.704;7.822;2024-03-22T06:43:02;43.05;;;22.70;;
46415;SDS011;32620;51.704;7.822;2024-03-22T06:45:28;44.08;;;23.77;;
46415;SDS011;32620;51.704;7.822;2024-03-22T06:47:54;45.15;;;23.77;;
46415;SDS011;32620;51.704;7.822;2024-03-22T06:50:20;45.60;;;27.42;;
46415;SDS011;32620;51.704;7.822;2024-03-22T06:52:49;45.08;;;26.60;;
46415;SDS011;32620;51.704;7.822;2024-03-22T06:55:16;41.80;;;26.20;;
46415;SDS011;32620;51.704;7.822;2024-03-22T06:57:42;34.95;;;20.25;;
46415;SDS011;32620;51.704;7.822;2024-03-22T07:00:10;33.22;;;19.15;;
46415;SDS011;32620;51.704;7.822;2024-03-22T07:02:36;37.03;;;20.42;;
46415;SDS011;32620;51.704;7.822;2024-03-22T07:05:01;41.30;;;19.00;;
46415;SDS011;32620;51.704;7.822;2024-03-22T07:07:28;33.95;;;18.67;;
46415;SDS011;32620;51.704;7.822;2024-03-22T07:09:54;31.23;;;18.30;;
46415;SDS011;32620;51.704;7.822;2024-03-22T07:12:21;34.35;;;17.85;;
46415;SDS011;32620;51.704;7.822;2024-03-22T07:14:47;31.52;;;18.15;;
46415;SDS011;32620;51.704;7.822;2024-03-22T07:17:13;31.05;;;18.30;;
46415;SDS011;32620;51.704;7.822;2024-03-22T07:19:38;32.83;;;16.85;;
46415;SDS011;32620;51.704;7.822;2024-03-22T07:22:04;32.33;;;17.58;;
46415;SDS011;32620;51.704;7.822;2024-03-22T07:24:29;31.45;;;16.92;;
46415;SDS011;32620;51.704;7.822;2024-03-22T07:26:55;30.30;;;16.77;;
46415;SDS011;32620;51.704;7.822;2024-03-22T07:29:20;29.55;;;15.80;;
46415;SDS011;32620;51.704;7.822;2024-03-22T07:31:46;26.80;;;15.55;;
46415;SDS011;32620;51.704;7.822;2024-03-22T07:34:11;28.27;;;15.90;;
46415;SDS011;32620;51.704;7.822;2024-03-22T07:36:37;28.63;;;15.80;;
46415;SDS011;32620;51.704;7.822;2024-03-22T07:39:04;27.73;;;15.77;;
46415;SDS011;32620;51.704;7.822;2024-03-22T07:41:31;33.53;;;17.35;;
46415;SDS011;32620;51.704;7.822;2024-03-22T07:43:58;34.47;;;16.45;;
46415;SDS011;32620;51.704;7.822;2024-03-22T07:46:25;29.02;;;15.90;;
46415;SDS011;32620;51.704;7.822;2024-03-22T07:48:51;28.75;;;15.35;;
46415;SDS011;32620;51.704;7.822;2024-03-22T07:51:17;27.65;;;16.02;;
46415;SDS011;32620;51.704;7.822;2024-03-22T07:53:42;27.63;;;14.90;;
46415;SDS011;32620;51.704;7.822;2024-03-22T07:56:08;29.98;;;16.92;;
46415;SDS011;32620;51.704;7.822;2024-03-22T07:58:34;26.92;;;16.63;;
46415;SDS011;32620;51.704;7.822;2024-03-22T08:00:59;31.42;;;15.70;;
46415;SDS011;32620;51.704;7.822;2024-03-22T08:03:25;34.95;;;16.02;;
46415;SDS011;32620;51.704;7.822;2024-03-22T08:05:50;26.23;;;15.15;;
46415;SDS011;32620;51.704;7.822;2024-03-22T08:08:16;26.92;;;16.13;;
46415;SDS011;32620;51.704;7.822;2024-03-22T08:10:42;26.20;;;15.77;;
46415;SDS011;32620;51.704;7.822;2024-03-22T08:13:08;26.17;;;15.45;;
46415;SDS011;32620;51.704;7.822;2024-03-22T08:15:33;26.42;;;15.00;;
46415;SDS011;32620;51.704;7.822;2024-03-22T08:18:00;31.45;;;15.90;;
46415;SDS011;32620;51.704;7.822;2024-03-22T08:20:26;25.67;;;14.52;;
46415;SDS011;32620;51.704;7.822;2024-03-22T08:22:51;30.85;;;16.50;;
46415;SDS011;32620;51.704;7.822;2024-03-22T08:25:17;25.60;;;14.98;;
46415;SDS011;32620;51.704;7.822;2024-03-22T08:27:44;28.40;;;15.13;;
46415;SDS011;32620;51.704;7.822;2024-03-22T08:30:11;24.65;;;15.15;;
46415;SDS011;32620;51.704;7.822;2024-03-22T08:32:37;27.58;;;16.17;;
46415;SDS011;32620;51.704;7.822;2024-03-22T08:35:05;24.98;;;15.10;;
46415;SDS011;32620;51.704;7.822;2024-03-22T08:37:34;25.35;;;14.65;;
46415;SDS011;32620;51.704;7.822;2024-03-22T08:40:00;27.40;;;15.95;;
46415;SDS011;32620;51.704;7.822;2024-03-22T08:42:25;27.40;;;14.80;;
46415;SDS011;32620;51.704;7.822;2024-03-22T08:44:51;26.85;;;14.68;;
46415;SDS011;32620;51.704;7.822;2024-03-22T08:47:17;25.92;;;15.70;;
46415;SDS011;32620;51.704;7.822;2024-03-22T08:49:42;27.20;;;15.18;;
46415;SDS011;32620;51.704;7.822;2024-03-22T08:52:09;28.13;;;15.75;;
46415;SDS011;32620;51.704;7.822;2024-03-22T08:54:35;25.70;;;15.25;;
46415;SDS011;32620;51.704;7.822;2024-03-22T08:57:00;26.95;;;14.70;;
46415;SDS011;32620;51.704;7.822;2024-03-22T08:59:26;25.80;;;15.13;;
46415;SDS011;32620;51.704;7.822;2024-03-22T09:01:52;28.20;;;14.75;;
46415;SDS011;32620;51.704;7.822;2024-03-22T09:04:18;30.52;;;15.20;;
46415;SDS011;32620;51.704;7.822;2024-03-22T09:06:44;26.55;;;15.18;;
46415;SDS011;32620;51.704;7.822;2024-03-22T09:09:10;26.95;;;15.05;;
46415;SDS011;32620;51.704;7.822;2024-03-22T09:11:36;27.52;;;15.02;;
46415;SDS011;32620;51.704;7.822;2024-03-22T09:14:01;23.10;;;13.85;;
46415;SDS011;32620;51.704;7.822;2024-03-22T09:16:27;28.13;;;14.73;;
46415;SDS011;32620;51.704;7.822;2024-03-22T09:18:52;21.83;;;14.02;;
46415;SDS011;32620;51.704;7.822;2024-03-22T09:21:18;25.77;;;14.02;;
46415;SDS011;32620;51.704;7.822;2024-03-22T09:23:43;24.35;;;13.77;;
46415;SDS011;32620;51.704;7.822;2024-03-22T09:26:09;24.40;;;14.70;;
46415;SDS011;32620;51.704;7.822;2024-03-22T09:28:34;22.38;;;14.45;;
46415;SDS011;32620;51.704;7.822;2024-03-22T09:31:07;27.20;;;14.88;;
46415;SDS011;32620;51.704;7.822;2024-03-22T09:33:33;28.80;;;15.40;;
46415;SDS011;32620;51.704;7.822;2024-03-22T09:35:59;26.02;;;14.18;;
46415;SDS011;32620;51.704;7.822;2024-03-22T09:38:24;25.55;;;14.13;;
46415;SDS011;32620;51.704;7.822;2024-03-22T09:40:50;25.05;;;13.45;;
46415;SDS011;32620;51.704;7.822;2024-03-22T09:43:19;28.65;;;15.30;;
46415;SDS011;32620;51.704;7.822;2024-03-22T09:45:45;26.20;;;14.25;;
46415;SDS011;32620;51.704;7.822;2024-03-22T09:48:12;22.63;;;13.70;;
46415;SDS011;32620;51.704;7.822;2024-03-22T09:50:38;24.55;;;14.00;;
46415;SDS011;32620;51.704;7.822;2024-03-22T09:53:05;26.27;;;13.52;;
46415;SDS011;32620;51.704;7.822;2024-03-22T09:55:32;26.75;;;13.88;;
46415;SDS011;32620;51.704;7.822;2024-03-22T09:58:01;20.52;;;12.40;;
46415;SDS011;32620;51.704;7.822;2024-03-22T10:00:27;26.88;;;14.10;;
46415;SDS011;32620;51.704;7.822;2024-03-22T10:02:53;26.23;;;14.60;;
46415;SDS011;32620;51.704;7.822;2024-03-22T10:05:19;24.67;;;13.48;;
46415;SDS011;32620;51.704;7.822;2024-03-22T10:07:45;25.15;;;13.07;;
46415;SDS011;32620;51.704;7.822;2024-03-22T10:10:10;21.98;;;13.20;;
46415;SDS011;32620;51.704;7.822;2024-03-22T10:12:37;19.90;;;12.45;;
46415;SDS011;32620;51.704;7.822;2024-03-22T10:15:04;20.48;;;12.40;;
46415;SDS011;32620;51.704;7.822;2024-03-22T10:17:30;22.30;;;12.95;;
46415;SDS011;32620;51.704;7.822;2024-03-22T10:19:56;20.63;;;13.45;;
46415;SDS011;32620;51.704;7.822;2024-03-22T10:22:22;21.63;;;12.68;;
46415;SDS011;32620;51.704;7.822;2024-03-22T10:24:49;21.42;;;12.93;;
46415;SDS011;32620;51.704;7.822;2024-03-22T10:27:15;23.20;;;13.07;;
46415;SDS011;32620;51.704;7.822;2024-03-22T10:29:41;21.40;;;12.95;;
46415;SDS011;32620;51.704;7.822;2024-03-22T10:32:07;24.08;;;13.55;;
46415;SDS011;32620;51.704;7.822;2024-03-22T10:34:34;22.55;;;12.75;;
46415;SDS011;32620;51.704;7.822;2024-03-22T10:37:00;24.95;;;12.93;;
46415;SDS011;32620;51.704;7.822;2024-03-22T10:39:26;20.30;;;12.57;;
46415;SDS011;32620;51.704;7.822;2024-03-22T10:41:53;22.13;;;12.75;;
46415;SDS011;32620;51.704;7.822;2024-03-22T10:44:19;21.40;;;12.77;;
46415;SDS011;32620;51.704;7.822;2024-03-22T10:46:46;19.10;;;12.60;;
46415;SDS011;32620;51.704;7.822;2024-03-22T10:49:17;21.67;;;12.35;;
46415;SDS011;32620;51.704;7.822;2024-03-22T10:51:44;21.00;;;13.60;;
46415;SDS011;32620;51.704;7.822;2024-03-22T10:54:14;25.63;;;13.93;;
46415;SDS011;32620;51.704;7.822;2024-03-22T10:56:47;21.58;;;12.93;;
46415;SDS011;32620;51.704;7.822;2024-03-22T10:59:14;18.75;;;12.88;;
46415;SDS011;32620;51.704;7.822;2024-03-22T11:01:45;22.85;;;13.10;;
46415;SDS011;32620;51.704;7.822;2024-03-22T11:04:11;24.88;;;13.45;;
46415;SDS011;32620;51.704;7.822;2024-03-22T11:06:37;22.25;;;12.80;;
46415;SDS011;32620;51.704;7.822;2024-03-22T11:09:03;19.67;;;12.20;;
46415;SDS011;32620;51.704;7.822;2024-03-22T11:11:29;18.23;;;11.93;;
46415;SDS011;32620;51.704;7.822;2024-03-22T11:13:56;22.30;;;13.00;;
46415;SDS011;32620;51.704;7.822;2024-03-22T11:16:22;25.10;;;13.57;;
46415;SDS011;32620;51.704;7.822;2024-03-22T11:18:47;22.20;;;12.45;;
46415;SDS011;32620;51.704;7.822;2024-03-22T11:21:14;25.65;;;13.18;;
46415;SDS011;32620;51.704;7.822;2024-03-22T11:23:40;22.58;;;13.77;;
46415;SDS011;32620;51.704;7.822;2024-03-22T11:26:05;22.30;;;12.88;;
46415;SDS011;32620;51.704;7.822;2024-03-22T11:28:32;21.73;;;12.73;;
46415;SDS011;32620;51.704;7.822;2024-03-22T11:30:58;21.00;;;11.18;;
46415;SDS011;32620;51.704;7.822;2024-03-22T11:33:24;23.48;;;11.32;;
46415;SDS011;32620;51.704;7.822;2024-03-22T11:35:52;20.90;;;11.20;;
46415;SDS011;32620;51.704;7.822;2024-03-22T11:38:17;16.38;;;10.77;;
46415;SDS011;32620;51.704;7.822;2024-03-22T11:40:44;20.95;;;12.35;;
46415;SDS011;32620;51.704;7.822;2024-03-22T11:43:10;21.05;;;11.05;;
46415;SDS011;32620;51.704;7.822;2024-03-22T11:45:39;20.48;;;12.02;;
46415;SDS011;32620;51.704;7.822;2024-03-22T11:48:06;21.45;;;12.80;;
46415;SDS011;32620;51.704;7.822;2024-03-22T11:50:32;24.13;;;12.50;;
46415;SDS011;32620;51.704;7.822;2024-03-22T11:52:57;19.15;;;12.70;;
46415;SDS011;32620;51.704;7.822;2024-03-22T11:55:26;22.38;;;13.45;;
46415;SDS011;32620;51.704;7.822;2024-03-22T11:57:53;22.52;;;14.57;;
46415;SDS011;32620;51.704;7.822;2024-03-22T12:00:18;27.75;;;16.48;;
46415;SDS011;32620;51.704;7.822;2024-03-22T12:02:44;30.08;;;18.33;;
46415;SDS011;32620;51.704;7.822;2024-03-22T12:05:10;30.77;;;19.02;;
46415;SDS011;32620;51.704;7.822;2024-03-22T12:07:36;29.90;;;19.90;;
46415;SDS011;32620;51.704;7.822;2024-03-22T12:10:02;26.30;;;19.08;;
46415;SDS011;32620;51.704;7.822;2024-03-22T12:12:28;29.85;;;19.75;;
46415;SDS011;32620;51.704;7.822;2024-03-22T12:14:55;27.73;;;17.75;;
46415;SDS011;32620;51.704;7.822;2024-03-22T12:17:21;26.55;;;16.30;;
46415;SDS011;32620;51.704;7.822;2024-03-22T12:19:46;29.75;;;17.48;;
46415;SDS011;32620;51.704;7.822;2024-03-22T12:22:12;25.08;;;16.30;;
46415;SDS011;32620;51.704;7.822;2024-03-22T12:24:38;22.70;;;14.65;;
46415;SDS011;32620;51.704;7.822;2024-03-22T12:27:03;28.67;;;16.50;;
46415;SDS011;32620;51.704;7.822;2024-03-22T12:29:32;27.20;;;16.95;;
46415;SDS011;32620;51.704;7.822;2024-03-22T12:31:58;24.77;;;16.20;;
46415;SDS011;32620;51.704;7.822;2024-03-22T12:34:26;27.10;;;16.67;;
46415;SDS011;32620;51.704;7.822;2024-03-22T12:36:52;27.92;;;17.75;;
46415;SDS011;32620;51.704;7.822;2024-03-22T12:39:18;29.00;;;18.38;;
46415;SDS011;32620;51.704;7.822;2024-03-22T12:41:43;30.92;;;18.58;;
46415;SDS011;32620;51.704;7.822;2024-03-22T12:44:09;30.65;;;18.67;;
46415;SDS011;32620;51.704;7.822;2024-03-22T12:46:34;32.05;;;18.85;;
46415;SDS011;32620;51.704;7.822;2024-03-22T12:49:00;31.20;;;18.65;;
46415;SDS011;32620;51.704;7.822;2024-03-22T12:51:25;33.00;;;19.70;;
46415;SDS011;32620;51.704;7.822;2024-03-22T12:53:51;33.03;;;20.13;;
46415;SDS011;32620;51.704;7.822;2024-03-22T12:56:17;34.90;;;21.45;;
46415;SDS011;32620;51.704;7.822;2024-03-22T12:58:42;32.05;;;20.17;;
46415;SDS011;32620;51.704;7.822;2024-03-22T13:01:08;35.13;;;21.05;;
46415;SDS011;32620;51.704;7.822;2024-03-22T13:03:35;35.63;;;21.45;;
46415;SDS011;32620;51.704;7.822;2024-03-22T13:06:02;35.88;;;20.40;;
46415;SDS011;32620;51.704;7.822;2024-03-22T13:08:28;39.92;;;21.83;;
46415;SDS011;32620;51.704;7.822;2024-03-22T13:10:54;34.00;;;21.58;;
46415;SDS011;32620;51.704;7.822;2024-03-22T13:13:19;36.33;;;22.20;;
46415;SDS011;32620;51.704;7.822;2024-03-22T13:15:45;34.80;;;22.05;;
46415;SDS011;32620;51.704;7.822;2024-03-22T13:18:12;34.10;;;22.23;;
46415;SDS011;32620;51.704;7.822;2024-03-22T13:20:37;40.72;;;24.08;;
46415;SDS011;32620;51.704;7.822;2024-03-22T13:23:03;39.45;;;24.15;;
46415;SDS011;32620;51.704;7.822;2024-03-22T13:25:29;36.92;;;23.17;;
46415;SDS011;32620;51.704;7.822;2024-03-22T13:27:55;37.88;;;22.75;;
46415;SDS011;32620;51.704;7.822;2024-03-22T13:30:21;38.90;;;24.20;;
46415;SDS011;32620;51.704;7.822;2024-03-22T13:32:47;37.80;;;23.42;;
46415;SDS011;32620;51.704;7.822;2024-03-22T13:35:13;39.35;;;24.15;;
46415;SDS011;32620;51.704;7.822;2024-03-22T13:37:40;36.67;;;22.77;;
46415;SDS011;32620;51.704;7.822;2024-03-22T13:40:07;40.25;;;22.90;;
46415;SDS011;32620;51.704;7.822;2024-03-22T13:42:33;37.05;;;22.73;;
46415;SDS011;32620;51.704;7.822;2024-03-22T13:44:59;37.42;;;23.08;;
46415;SDS011;32620;51.704;7.822;2024-03-22T13:47:25;37.28;;;22.38;;
46415;SDS011;32620;51.704;7.822;2024-03-22T13:49:52;37.22;;;23.90;;
46415;SDS011;32620;51.704;7.822;2024-03-22T13:52:18;37.65;;;23.83;;
46415;SDS011;32620;51.704;7.822;2024-03-22T13:54:45;37.67;;;24.42;;
46415;SDS011;32620;51.704;7.822;2024-03-22T13:57:11;40.30;;;24.30;;
46415;SDS011;32620;51.704;7.822;2024-03-22T13:59:37;45.03;;;25.95;;
46415;SDS011;32620;51.704;7.822;2024-03-22T14:02:04;41.05;;;25.13;;
46415;SDS011;32620;51.704;7.822;2024-03-22T14:04:29;42.22;;;25.20;;
46415;SDS011;32620;51.704;7.822;2024-03-22T14:06:55;40.65;;;25.20;;
46415;SDS011;32620;51.704;7.822;2024-03-22T14:09:20;42.13;;;25.30;;
46415;SDS011;32620;51.704;7.822;2024-03-22T14:11:46;44.17;;;25.08;;
46415;SDS011;32620;51.704;7.822;2024-03-22T14:14:13;42.97;;;24.90;;